DABB/AAE METAR and TAF weather

Enter ICAO airport designator
Station Type Date Time Source
DABB METAR 2022/11/26 08:00 UTC NOAA

DABB 260800Z 30016KT 9999 SCT020 FEW026TCU SCT033 16/09 Q1021


Station Type Date Time Source
DABB Decoded METAR 2022/11/26 08:00 UTC NOAA

Annaba, Algeria (DABB) 36-50N 007-49E 4M
Nov 26, 2022 - 03:00 AM EST / 2022.11.26 0800 UTC
Wind: from the WNW (300 degrees) at 18 MPH (16 KT):0
Visibility: greater than 7 mile(s):0
Sky conditions: partly cloudy
Weather: Towering cumulus clouds observed
Temperature: 60 F (16 C)
Dew Point: 48 F (9 C)
Relative Humidity: 63%
Pressure (altimeter): 30.15 in. Hg (1021 hPa)
ob: DABB 260800Z 30016KT 9999 SCT020 FEW026TCU SCT033 16/09 Q1021
cycle: 8

Station Type Date Time Source
DABB TAF 2022/11/26 06:34 UTC NOAA

TAF DABB 260500Z 2606/2706 30017KT 9999 FEW026 BKN030
TEMPO 2606/2618 32020G35KT 4000 RA FEW020CB PROB40
TEMPO 2606/2614 -TSRA SCT016CB PROB40
TEMPO 2618/2706 31020G30KT RA FEW020CB

Example: see airport list